BCS134 EDDP-LIMC
Flight info
| Callsign | BCS134 |
|---|---|
| Flight time | 1h 9m |
| Altitude | 38000 |
| Route | NEVKO2E/08R NEVKO Q243 BAMKI Z94 KOMIB DCT TEDGO DCT SONOM/N0479F370 DCT GERSA DCT SOSON DCT DEGAD Z424 RIXUV |
| Aircraft | B77L/H-SDE1E2E3FGHIJ2J3J4J5M1RWXY/LB1D1 |
Departure
| Time | 2026-05-07 19:23 |
|---|---|
| Airport | Leipzig/Halle Airport (EDDP) |
Arrival
| Time | 2026-05-07 20:32 |
|---|---|
| Airport | Milan Malpensa International Airport (LIMC) |
| Time | Latitude | Longitude | Altitude | Speed | Heading |
|---|---|---|---|---|---|
| 2026-05-07 18:58 | 51.40840 | 12.23381 | 470 ft | 0 kts | 86° |
| 2026-05-07 19:03 | 51.40839 | 12.23372 | 467 ft | 2 kts | 85° |
| 2026-05-07 19:03 | 51.40838 | 12.23345 | 469 ft | 2 kts | 83° |
| 2026-05-07 19:03 | 51.40836 | 12.23319 | 465 ft | 2 kts | 79° |
| 2026-05-07 19:03 | 51.40832 | 12.23294 | 465 ft | 2 kts | 73° |
| 2026-05-07 19:04 | 51.40826 | 12.23269 | 464 ft | 2 kts | 55° |
| 2026-05-07 19:04 | 51.40814 | 12.23252 | 463 ft | 2 kts | 5° |
| 2026-05-07 19:04 | 51.40807 | 12.23252 | 462 ft | 0 kts | 356° |
| 2026-05-07 19:11 | 51.40813 | 12.23251 | 470 ft | 8 kts | 356° |
| 2026-05-07 19:11 | 51.40890 | 12.23242 | 468 ft | 11 kts | 355° |
| 2026-05-07 19:11 | 51.40973 | 12.23231 | 474 ft | 13 kts | 355° |
| 2026-05-07 19:11 | 51.41023 | 12.23061 | 473 ft | 29 kts | 264° |
| 2026-05-07 19:12 | 51.41009 | 12.22758 | 471 ft | 26 kts | 266° |
| 2026-05-07 19:12 | 51.40996 | 12.22473 | 466 ft | 25 kts | 265° |
| 2026-05-07 19:12 | 51.41068 | 12.22259 | 464 ft | 21 kts | 291° |
| 2026-05-07 19:12 | 51.41063 | 12.22024 | 463 ft | 21 kts | 265° |
| 2026-05-07 19:13 | 51.41055 | 12.21864 | 464 ft | 0 kts | 265° |
| 2026-05-07 19:15 | 51.41052 | 12.21799 | 465 ft | 16 kts | 265° |
| 2026-05-07 19:15 | 51.41042 | 12.21592 | 462 ft | 21 kts | 265° |
| 2026-05-07 19:15 | 51.41029 | 12.21304 | 456 ft | 29 kts | 265° |
| 2026-05-07 19:15 | 51.41016 | 12.21013 | 448 ft | 24 kts | 265° |
| 2026-05-07 19:16 | 51.41006 | 12.20813 | 441 ft | 0 kts | 266° |
| 2026-05-07 19:16 | 51.41003 | 12.20760 | 433 ft | 10 kts | 266° |
| 2026-05-07 19:17 | 51.40999 | 12.20674 | 433 ft | 9 kts | 265° |
| 2026-05-07 19:17 | 51.40996 | 12.20617 | 433 ft | 0 kts | 265° |
| 2026-05-07 19:18 | 51.40996 | 12.20615 | 433 ft | 1 kts | 265° |
| 2026-05-07 19:18 | 51.40995 | 12.20593 | 433 ft | 2 kts | 265° |
| 2026-05-07 19:19 | 51.41008 | 12.20519 | 432 ft | 9 kts | 306° |
| 2026-05-07 19:19 | 51.41036 | 12.20494 | 435 ft | 0 kts | 354° |
| 2026-05-07 19:21 | 51.41037 | 12.20494 | 436 ft | 1 kts | 354° |
| 2026-05-07 19:21 | 51.41130 | 12.20526 | 434 ft | 21 kts | 32° |
| 2026-05-07 19:21 | 51.41171 | 12.20703 | 433 ft | 0 kts | 85° |
| 2026-05-07 19:22 | 51.41172 | 12.20706 | 433 ft | 4 kts | 85° |
| 2026-05-07 19:22 | 51.41192 | 12.21126 | 451 ft | 81 kts | 85° |
| 2026-05-07 19:22 | 51.41254 | 12.22481 | 466 ft | 159 kts | 84° |
| 2026-05-07 19:22 | 51.41332 | 12.24471 | 843 ft | 189 kts | 85° |
| 2026-05-07 19:23 | 51.41405 | 12.26423 | 2120 ft | 167 kts | 84° |
| 2026-05-07 19:23 | 51.41495 | 12.28313 | 2887 ft | 173 kts | 84° |
| 2026-05-07 19:23 | 51.41598 | 12.30380 | 3193 ft | 199 kts | 84° |
| 2026-05-07 19:23 | 51.41716 | 12.32732 | 3482 ft | 228 kts | 84° |
| 2026-05-07 19:24 | 51.41851 | 12.35423 | 3951 ft | 249 kts | 84° |
| 2026-05-07 19:24 | 51.41992 | 12.38238 | 4782 ft | 258 kts | 84° |
| 2026-05-07 19:24 | 51.42137 | 12.41131 | 5686 ft | 262 kts | 84° |
| 2026-05-07 19:24 | 51.42282 | 12.44056 | 6574 ft | 265 kts | 85° |
| 2026-05-07 19:25 | 51.42428 | 12.47004 | 7074 ft | 269 kts | 85° |
| 2026-05-07 19:25 | 51.42438 | 12.50014 | 7735 ft | 273 kts | 101° |
| 2026-05-07 19:25 | 51.41601 | 12.52754 | 8533 ft | 280 kts | 130° |
| 2026-05-07 19:25 | 51.40043 | 12.54564 | 9406 ft | 284 kts | 157° |
| 2026-05-07 19:26 | 51.38127 | 12.55306 | 10270 ft | 284 kts | 175° |
| 2026-05-07 19:26 | 51.36105 | 12.55552 | 10745 ft | 302 kts | 178° |
| 2026-05-07 19:26 | 51.33902 | 12.55767 | 10946 ft | 330 kts | 178° |
| 2026-05-07 19:26 | 51.31535 | 12.55994 | 11172 ft | 358 kts | 177° |
| 2026-05-07 19:27 | 51.28981 | 12.56250 | 11742 ft | 373 kts | 177° |
| 2026-05-07 19:27 | 51.26349 | 12.56529 | 12637 ft | 381 kts | 177° |
| 2026-05-07 19:27 | 51.23683 | 12.56824 | 13675 ft | 386 kts | 177° |
| 2026-05-07 19:27 | 51.21007 | 12.57123 | 14596 ft | 391 kts | 177° |
| 2026-05-07 19:28 | 51.18279 | 12.57146 | 15223 ft | 395 kts | 190° |
| 2026-05-07 19:28 | 51.15687 | 12.55645 | 15939 ft | 401 kts | 212° |
| 2026-05-07 19:28 | 51.13595 | 12.52771 | 16795 ft | 404 kts | 231° |
| 2026-05-07 19:28 | 51.12110 | 12.48972 | 17724 ft | 402 kts | 249° |
| 2026-05-07 19:29 | 51.11160 | 12.44771 | 18423 ft | 408 kts | 253° |
| 2026-05-07 19:29 | 51.10250 | 12.40456 | 18999 ft | 413 kts | 253° |
| 2026-05-07 19:29 | 51.09337 | 12.36085 | 19103 ft | 420 kts | 253° |
| 2026-05-07 19:29 | 51.08415 | 12.31709 | 19103 ft | 419 kts | 253° |
| 2026-05-07 19:30 | 51.07479 | 12.27327 | 19092 ft | 416 kts | 252° |
| 2026-05-07 19:30 | 51.06538 | 12.22976 | 19093 ft | 415 kts | 252° |
| 2026-05-07 19:30 | 51.05587 | 12.18624 | 19091 ft | 416 kts | 252° |
| 2026-05-07 19:30 | 51.04639 | 12.14312 | 19304 ft | 418 kts | 252° |
| 2026-05-07 19:31 | 51.03673 | 12.09939 | 20120 ft | 421 kts | 252° |
| 2026-05-07 19:31 | 51.02697 | 12.05535 | 20903 ft | 424 kts | 252° |
| 2026-05-07 19:31 | 51.01704 | 12.01062 | 21623 ft | 429 kts | 252° |
| 2026-05-07 19:31 | 51.00701 | 11.96553 | 22315 ft | 435 kts | 252° |
| 2026-05-07 19:32 | 50.99697 | 11.92051 | 23035 ft | 439 kts | 252° |
| 2026-05-07 19:32 | 50.98665 | 11.87433 | 23737 ft | 444 kts | 252° |
| 2026-05-07 19:32 | 50.97637 | 11.82846 | 24372 ft | 446 kts | 251° |
| 2026-05-07 19:32 | 50.96592 | 11.78193 | 25079 ft | 447 kts | 251° |
| 2026-05-07 19:33 | 50.95540 | 11.73520 | 25701 ft | 450 kts | 251° |
| 2026-05-07 19:33 | 50.94840 | 11.70415 | 26052 ft | 454 kts | 251° |
| 2026-05-07 19:33 | 50.93413 | 11.64096 | 26752 ft | 460 kts | 251° |
| 2026-05-07 19:33 | 50.92692 | 11.60911 | 27119 ft | 463 kts | 251° |
| 2026-05-07 19:34 | 50.91597 | 11.56081 | 27683 ft | 466 kts | 251° |
| 2026-05-07 19:34 | 50.90491 | 11.51218 | 28243 ft | 470 kts | 251° |
| 2026-05-07 19:34 | 50.89370 | 11.46299 | 28763 ft | 473 kts | 251° |
| 2026-05-07 19:34 | 50.88260 | 11.41431 | 29237 ft | 477 kts | 251° |
| 2026-05-07 19:35 | 50.87127 | 11.36483 | 29857 ft | 476 kts | 251° |
| 2026-05-07 19:35 | 50.85980 | 11.31582 | 30082 ft | 469 kts | 248° |
| 2026-05-07 19:35 | 50.84424 | 11.27177 | 30088 ft | 458 kts | 234° |
| 2026-05-07 19:35 | 50.82426 | 11.23284 | 30091 ft | 454 kts | 230° |
| 2026-05-07 19:36 | 50.78415 | 11.15537 | 30095 ft | 453 kts | 232° |
| 2026-05-07 19:36 | 50.74567 | 11.07675 | 30091 ft | 453 kts | 233° |
| 2026-05-07 19:37 | 50.70259 | 11.00450 | 30089 ft | 454 kts | 221° |
| 2026-05-07 19:37 | 50.65153 | 10.94595 | 30092 ft | 455 kts | 215° |
| 2026-05-07 19:38 | 50.59924 | 10.88953 | 30079 ft | 455 kts | 215° |
| 2026-05-07 19:38 | 50.54717 | 10.83257 | 30083 ft | 455 kts | 216° |
| 2026-05-07 19:39 | 50.49492 | 10.77569 | 30076 ft | 456 kts | 215° |
| 2026-05-07 19:39 | 50.44279 | 10.71944 | 30080 ft | 455 kts | 215° |
| 2026-05-07 19:40 | 50.39056 | 10.66282 | 30076 ft | 455 kts | 216° |
| 2026-05-07 19:40 | 50.33866 | 10.60649 | 30079 ft | 455 kts | 216° |
| 2026-05-07 19:41 | 50.28624 | 10.55037 | 30073 ft | 456 kts | 215° |
| 2026-05-07 19:41 | 50.23420 | 10.49428 | 30084 ft | 456 kts | 218° |
| 2026-05-07 19:42 | 50.18757 | 10.42727 | 30085 ft | 454 kts | 227° |
| 2026-05-07 19:42 | 50.14388 | 10.35585 | 30081 ft | 455 kts | 227° |
| 2026-05-07 19:43 | 50.12184 | 10.32059 | 30339 ft | 460 kts | 227° |
| 2026-05-07 19:43 | 50.09928 | 10.28543 | 31011 ft | 458 kts | 224° |
| 2026-05-07 19:43 | 50.07461 | 10.25413 | 31702 ft | 457 kts | 217° |
| 2026-05-07 19:43 | 50.04797 | 10.22700 | 32036 ft | 464 kts | 212° |
| 2026-05-07 19:44 | 50.01898 | 10.20369 | 32269 ft | 472 kts | 206° |
| 2026-05-07 19:44 | 49.98869 | 10.18281 | 32535 ft | 477 kts | 205° |
| 2026-05-07 19:44 | 49.95815 | 10.16206 | 32917 ft | 479 kts | 205° |
| 2026-05-07 19:44 | 49.92793 | 10.14156 | 33422 ft | 478 kts | 205° |
| 2026-05-07 19:45 | 49.89742 | 10.12076 | 33952 ft | 476 kts | 206° |
| 2026-05-07 19:45 | 49.86705 | 10.09993 | 34383 ft | 475 kts | 206° |
| 2026-05-07 19:45 | 49.83679 | 10.07910 | 34770 ft | 475 kts | 206° |
| 2026-05-07 19:45 | 49.80654 | 10.05823 | 35145 ft | 474 kts | 206° |
| 2026-05-07 19:46 | 49.77670 | 10.03764 | 35519 ft | 474 kts | 206° |
| 2026-05-07 19:46 | 49.74664 | 10.01691 | 35906 ft | 473 kts | 206° |
| 2026-05-07 19:46 | 49.71654 | 9.99619 | 36318 ft | 471 kts | 206° |
| 2026-05-07 19:46 | 49.68653 | 9.97556 | 36689 ft | 470 kts | 206° |
| 2026-05-07 19:47 | 49.65684 | 9.95518 | 37010 ft | 470 kts | 206° |
| 2026-05-07 19:47 | 49.62686 | 9.93463 | 37341 ft | 470 kts | 206° |
| 2026-05-07 19:47 | 49.59677 | 9.91403 | 37668 ft | 470 kts | 206° |
| 2026-05-07 19:47 | 49.56691 | 9.89362 | 37990 ft | 470 kts | 206° |
| 2026-05-07 19:48 | 49.50694 | 9.85271 | 38089 ft | 474 kts | 206° |
| 2026-05-07 19:48 | 49.44668 | 9.81174 | 38063 ft | 469 kts | 206° |
| 2026-05-07 19:49 | 49.38757 | 9.77166 | 38067 ft | 466 kts | 206° |
| 2026-05-07 19:49 | 49.32804 | 9.73138 | 38060 ft | 465 kts | 206° |
| 2026-05-07 19:50 | 49.26917 | 9.69165 | 38072 ft | 464 kts | 206° |
| 2026-05-07 19:50 | 49.20979 | 9.65168 | 38077 ft | 465 kts | 206° |
| 2026-05-07 19:51 | 49.15079 | 9.61207 | 38080 ft | 466 kts | 206° |
| 2026-05-07 19:51 | 49.09124 | 9.57221 | 37710 ft | 464 kts | 206° |
| 2026-05-07 19:52 | 49.06185 | 9.55257 | 37328 ft | 466 kts | 206° |
| 2026-05-07 19:52 | 49.03198 | 9.53264 | 37058 ft | 466 kts | 206° |
| 2026-05-07 19:52 | 48.97290 | 9.49329 | 37069 ft | 467 kts | 206° |
| 2026-05-07 19:53 | 48.91280 | 9.45335 | 37050 ft | 471 kts | 206° |
| 2026-05-07 19:53 | 48.85289 | 9.41366 | 37062 ft | 472 kts | 206° |
| 2026-05-07 19:54 | 48.79242 | 9.37370 | 37067 ft | 473 kts | 206° |
| 2026-05-07 19:54 | 48.73207 | 9.33393 | 37077 ft | 473 kts | 206° |
| 2026-05-07 19:55 | 48.67164 | 9.29419 | 37067 ft | 471 kts | 206° |
| 2026-05-07 19:55 | 48.61132 | 9.25579 | 37079 ft | 471 kts | 202° |
| 2026-05-07 19:56 | 48.54874 | 9.22747 | 37080 ft | 471 kts | 199° |
| 2026-05-07 19:56 | 48.48566 | 9.20037 | 37058 ft | 470 kts | 199° |
| 2026-05-07 19:57 | 48.42270 | 9.17298 | 37065 ft | 469 kts | 199° |
| 2026-05-07 19:57 | 48.36027 | 9.14562 | 37067 ft | 469 kts | 199° |
| 2026-05-07 19:58 | 48.29735 | 9.11805 | 37061 ft | 469 kts | 199° |
| 2026-05-07 19:58 | 48.23489 | 9.09079 | 37061 ft | 469 kts | 199° |
| 2026-05-07 19:59 | 48.17244 | 9.06360 | 37067 ft | 469 kts | 199° |
| 2026-05-07 19:59 | 48.10969 | 9.03634 | 37064 ft | 469 kts | 199° |
| 2026-05-07 20:00 | 48.04726 | 9.00931 | 37059 ft | 468 kts | 199° |
| 2026-05-07 20:00 | 47.98447 | 8.98219 | 37063 ft | 468 kts | 199° |
| 2026-05-07 20:01 | 47.92184 | 8.95519 | 37055 ft | 468 kts | 199° |
| 2026-05-07 20:01 | 47.85947 | 8.92837 | 37043 ft | 468 kts | 199° |
| 2026-05-07 20:02 | 47.79706 | 8.90161 | 37056 ft | 467 kts | 199° |
| 2026-05-07 20:02 | 47.73501 | 8.87321 | 37034 ft | 458 kts | 202° |
| 2026-05-07 20:03 | 47.70553 | 8.85844 | 37028 ft | 447 kts | 202° |
| 2026-05-07 20:03 | 47.67621 | 8.84356 | 37046 ft | 444 kts | 202° |
| 2026-05-07 20:03 | 47.61774 | 8.81408 | 37048 ft | 442 kts | 202° |
| 2026-05-07 20:04 | 47.55975 | 8.78533 | 37048 ft | 442 kts | 202° |
| 2026-05-07 20:04 | 47.50133 | 8.75664 | 37047 ft | 441 kts | 202° |
| 2026-05-07 20:05 | 47.44311 | 8.72814 | 37045 ft | 441 kts | 202° |
| 2026-05-07 20:05 | 47.39425 | 8.70428 | 37046 ft | 440 kts | 202° |
| 2026-05-07 20:06 | 47.33599 | 8.67586 | 37046 ft | 440 kts | 202° |
| 2026-05-07 20:06 | 47.27798 | 8.64763 | 37056 ft | 440 kts | 202° |
| 2026-05-07 20:07 | 47.21963 | 8.61930 | 37039 ft | 440 kts | 202° |
| 2026-05-07 20:07 | 47.16165 | 8.59122 | 37045 ft | 440 kts | 202° |
| 2026-05-07 20:08 | 47.10361 | 8.56315 | 37034 ft | 440 kts | 202° |
| 2026-05-07 20:08 | 47.04370 | 8.53709 | 37019 ft | 457 kts | 196° |
| 2026-05-07 20:09 | 46.97967 | 8.52597 | 37042 ft | 471 kts | 187° |
| 2026-05-07 20:10 | 46.88064 | 8.51917 | 36151 ft | 476 kts | 187° |
| 2026-05-07 20:10 | 46.84764 | 8.51679 | 35413 ft | 475 kts | 187° |
| 2026-05-07 20:10 | 46.81456 | 8.51430 | 34618 ft | 475 kts | 187° |
| 2026-05-07 20:10 | 46.78150 | 8.51174 | 33767 ft | 476 kts | 188° |
| 2026-05-07 20:11 | 46.74877 | 8.50914 | 32818 ft | 477 kts | 188° |
| 2026-05-07 20:11 | 46.71539 | 8.50649 | 31845 ft | 477 kts | 187° |
| 2026-05-07 20:11 | 46.68229 | 8.50383 | 30960 ft | 476 kts | 187° |
| 2026-05-07 20:11 | 46.64957 | 8.50128 | 30176 ft | 472 kts | 187° |
| 2026-05-07 20:12 | 46.61688 | 8.49880 | 29446 ft | 467 kts | 187° |
| 2026-05-07 20:12 | 46.58460 | 8.49628 | 28750 ft | 461 kts | 187° |
| 2026-05-07 20:12 | 46.55308 | 8.49382 | 28103 ft | 455 kts | 187° |
| 2026-05-07 20:12 | 46.52164 | 8.49138 | 27500 ft | 449 kts | 187° |
| 2026-05-07 20:13 | 46.49046 | 8.48897 | 26860 ft | 445 kts | 186° |
| 2026-05-07 20:13 | 46.45944 | 8.48909 | 26137 ft | 447 kts | 180° |
| 2026-05-07 20:13 | 46.42854 | 8.49478 | 25513 ft | 446 kts | 174° |
| 2026-05-07 20:13 | 46.39836 | 8.50189 | 24900 ft | 442 kts | 174° |
| 2026-05-07 20:14 | 46.36808 | 8.50889 | 24313 ft | 438 kts | 174° |
| 2026-05-07 20:14 | 46.33791 | 8.51569 | 23728 ft | 436 kts | 174° |
| 2026-05-07 20:14 | 46.30791 | 8.52226 | 23071 ft | 435 kts | 174° |
| 2026-05-07 20:14 | 46.27832 | 8.52864 | 22428 ft | 432 kts | 174° |
| 2026-05-07 20:15 | 46.24867 | 8.53508 | 21834 ft | 429 kts | 174° |
| 2026-05-07 20:15 | 46.21922 | 8.54140 | 21271 ft | 426 kts | 174° |
| 2026-05-07 20:15 | 46.18980 | 8.54767 | 20704 ft | 424 kts | 174° |
| 2026-05-07 20:15 | 46.16074 | 8.55396 | 20134 ft | 421 kts | 174° |
| 2026-05-07 20:16 | 46.13215 | 8.56002 | 19593 ft | 419 kts | 174° |
| 2026-05-07 20:16 | 46.10322 | 8.56618 | 19045 ft | 417 kts | 174° |
| 2026-05-07 20:16 | 46.07441 | 8.57237 | 18477 ft | 416 kts | 174° |
| 2026-05-07 20:16 | 46.04615 | 8.57843 | 17896 ft | 414 kts | 174° |
| 2026-05-07 20:17 | 46.01766 | 8.58452 | 17298 ft | 413 kts | 174° |
| 2026-05-07 20:17 | 45.98916 | 8.59061 | 16712 ft | 412 kts | 174° |
| 2026-05-07 20:17 | 45.96079 | 8.59666 | 16151 ft | 411 kts | 174° |
| 2026-05-07 20:17 | 45.93256 | 8.60292 | 15589 ft | 407 kts | 171° |
| 2026-05-07 20:18 | 45.90554 | 8.61336 | 15042 ft | 407 kts | 162° |
| 2026-05-07 20:18 | 45.87982 | 8.62975 | 14555 ft | 395 kts | 154° |
| 2026-05-07 20:18 | 45.86377 | 8.64261 | 14169 ft | 398 kts | 149° |
| 2026-05-07 20:18 | 45.83363 | 8.67169 | 13390 ft | 378 kts | 147° |
| 2026-05-07 20:19 | 45.81923 | 8.68559 | 13195 ft | 372 kts | 147° |
| 2026-05-07 20:19 | 45.79755 | 8.70634 | 12775 ft | 371 kts | 147° |
| 2026-05-07 20:19 | 45.77629 | 8.72658 | 12326 ft | 371 kts | 147° |
| 2026-05-07 20:19 | 45.75500 | 8.74682 | 11868 ft | 359 kts | 147° |
| 2026-05-07 20:20 | 45.73492 | 8.76589 | 11708 ft | 331 kts | 147° |
| 2026-05-07 20:20 | 45.71651 | 8.78335 | 11564 ft | 305 kts | 147° |
| 2026-05-07 20:20 | 45.69948 | 8.79948 | 11440 ft | 282 kts | 147° |
| 2026-05-07 20:20 | 45.68371 | 8.81440 | 11360 ft | 269 kts | 147° |
| 2026-05-07 20:21 | 45.66821 | 8.82906 | 11254 ft | 264 kts | 147° |
| 2026-05-07 20:21 | 45.65298 | 8.84344 | 11157 ft | 261 kts | 147° |
| 2026-05-07 20:21 | 45.63778 | 8.85777 | 11057 ft | 269 kts | 147° |
| 2026-05-07 20:21 | 45.62194 | 8.87260 | 10937 ft | 270 kts | 150° |
| 2026-05-07 20:22 | 45.60470 | 8.88236 | 10638 ft | 262 kts | 168° |
| 2026-05-07 20:22 | 45.58731 | 8.88681 | 10350 ft | 252 kts | 172° |
| 2026-05-07 20:22 | 45.56969 | 8.89079 | 10114 ft | 261 kts | 171° |
| 2026-05-07 20:22 | 45.55148 | 8.89527 | 9821 ft | 268 kts | 169° |
| 2026-05-07 20:23 | 45.53306 | 8.90007 | 9477 ft | 268 kts | 169° |
| 2026-05-07 20:23 | 45.51482 | 8.90495 | 9171 ft | 264 kts | 169° |
| 2026-05-07 20:23 | 45.49707 | 8.90973 | 8758 ft | 263 kts | 169° |
| 2026-05-07 20:23 | 45.47923 | 8.91457 | 8270 ft | 257 kts | 169° |
| 2026-05-07 20:24 | 45.46172 | 8.91933 | 7793 ft | 254 kts | 169° |
| 2026-05-07 20:24 | 45.44452 | 8.92400 | 7336 ft | 254 kts | 169° |
| 2026-05-07 20:24 | 45.42679 | 8.92881 | 6869 ft | 261 kts | 169° |
| 2026-05-07 20:24 | 45.40885 | 8.93008 | 6408 ft | 258 kts | 193° |
| 2026-05-07 20:25 | 45.39305 | 8.91867 | 5993 ft | 254 kts | 224° |
| 2026-05-07 20:25 | 45.38343 | 8.89832 | 5667 ft | 241 kts | 249° |
| 2026-05-07 20:25 | 45.37918 | 8.87628 | 5422 ft | 227 kts | 258° |
| 2026-05-07 20:25 | 45.37628 | 8.85474 | 5201 ft | 214 kts | 259° |
| 2026-05-07 20:26 | 45.37366 | 8.83424 | 5025 ft | 209 kts | 264° |
| 2026-05-07 20:26 | 45.37544 | 8.81433 | 4892 ft | 205 kts | 298° |
| 2026-05-07 20:26 | 45.38531 | 8.80013 | 4673 ft | 205 kts | 336° |
| 2026-05-07 20:26 | 45.39922 | 8.79541 | 4498 ft | 208 kts | 352° |
| 2026-05-07 20:27 | 45.41358 | 8.79187 | 4288 ft | 206 kts | 350° |
| 2026-05-07 20:27 | 45.42720 | 8.78824 | 4036 ft | 191 kts | 350° |
| 2026-05-07 20:27 | 45.43977 | 8.78487 | 3834 ft | 180 kts | 349° |
| 2026-05-07 20:27 | 45.45172 | 8.78167 | 3639 ft | 169 kts | 349° |
| 2026-05-07 20:28 | 45.46337 | 8.77853 | 3504 ft | 171 kts | 349° |
| 2026-05-07 20:28 | 45.47502 | 8.77540 | 3356 ft | 173 kts | 349° |
| 2026-05-07 20:28 | 45.48680 | 8.77222 | 3182 ft | 170 kts | 349° |
| 2026-05-07 20:28 | 45.49828 | 8.76913 | 3111 ft | 169 kts | 349° |
| 2026-05-07 20:29 | 45.50964 | 8.76606 | 2867 ft | 160 kts | 349° |
| 2026-05-07 20:29 | 45.52024 | 8.76320 | 2671 ft | 153 kts | 349° |
| 2026-05-07 20:29 | 45.53058 | 8.76040 | 2481 ft | 153 kts | 348° |
| 2026-05-07 20:29 | 45.54108 | 8.75756 | 2265 ft | 152 kts | 348° |
| 2026-05-07 20:30 | 45.55152 | 8.75474 | 2059 ft | 152 kts | 348° |
| 2026-05-07 20:30 | 45.56177 | 8.75197 | 1857 ft | 152 kts | 348° |
| 2026-05-07 20:30 | 45.57216 | 8.74928 | 1654 ft | 151 kts | 351° |
| 2026-05-07 20:30 | 45.58254 | 8.74686 | 1471 ft | 151 kts | 349° |
| 2026-05-07 20:31 | 45.59282 | 8.74397 | 1217 ft | 150 kts | 348° |
| 2026-05-07 20:31 | 45.60301 | 8.74107 | 1006 ft | 148 kts | 349° |
| 2026-05-07 20:31 | 45.61312 | 8.73823 | 828 ft | 149 kts | 349° |
| 2026-05-07 20:31 | 45.62325 | 8.73544 | 734 ft | 146 kts | 349° |
| 2026-05-07 20:32 | 45.63192 | 8.73303 | 739 ft | 95 kts | 348° |
| 2026-05-07 20:32 | 45.63489 | 8.73221 | 744 ft | 27 kts | 349° |
| 2026-05-07 20:32 | 45.63724 | 8.73070 | 748 ft | 48 kts | 323° |
| 2026-05-07 20:32 | 45.63897 | 8.72752 | 753 ft | 39 kts | 304° |
| 2026-05-07 20:33 | 45.63944 | 8.72435 | 757 ft | 31 kts | 261° |
| 2026-05-07 20:33 | 45.63916 | 8.72136 | 756 ft | 30 kts | 268° |
| 2026-05-07 20:33 | 45.63867 | 8.71856 | 753 ft | 30 kts | 224° |
| 2026-05-07 20:33 | 45.63676 | 8.71857 | 752 ft | 29 kts | 169° |
| 2026-05-07 20:34 | 45.63446 | 8.71922 | 747 ft | 36 kts | 168° |
| 2026-05-07 20:34 | 45.63156 | 8.72001 | 741 ft | 44 kts | 169° |
| 2026-05-07 20:34 | 45.62858 | 8.72084 | 737 ft | 43 kts | 169° |
| 2026-05-07 20:34 | 45.62559 | 8.72167 | 733 ft | 42 kts | 169° |
| 2026-05-07 20:35 | 45.62251 | 8.72250 | 724 ft | 45 kts | 170° |
| 2026-05-07 20:35 | 45.61943 | 8.72335 | 722 ft | 44 kts | 167° |
| 2026-05-07 20:35 | 45.61648 | 8.72418 | 715 ft | 43 kts | 169° |
| 2026-05-07 20:35 | 45.61408 | 8.72460 | 698 ft | 13 kts | 236° |
| 2026-05-07 20:36 | 45.61383 | 8.72257 | 700 ft | 32 kts | 254° |
| 2026-05-07 20:36 | 45.61197 | 8.72233 | 699 ft | 29 kts | 170° |
| 2026-05-07 20:36 | 45.61064 | 8.72142 | 694 ft | 20 kts | 175° |
| 2026-05-07 20:36 | 45.60954 | 8.72117 | 694 ft | 16 kts | 244° |
| 2026-05-07 20:37 | 45.60941 | 8.72034 | 690 ft | 0 kts | 259° |